Flight Track Log - Related Links

Times and Time Zones

All times are in EDT time to prevent confusion due to time zone crossing. See the CSN3203 flight status page for this flight to view local times or setup timezone preferences in your user account.

Time Position Orientation Groundspeed Altitude Reporting Facility
EDT Latitude Longitude Course Direction KTS MPH feet Rate Location/Type
Sat 07:59:12 PM 23.4380 113.2920 351° North 170 196 2,500  Level FlightAware ADS-B
Sat 07:59:42 PM 23.4660 113.2900 356° North 214 246 3,100 1,636 Climbing FlightAware ADS-B
Sat 08:00:07 PM 23.4930 113.2890 358° North 235 270 4,000 1,964 Climbing FlightAware ADS-B
Sat 08:00:37 PM 23.5280 113.2820 350° North 261 300 4,900 1,855 Climbing FlightAware ADS-B
Sat 08:01:02 PM 23.5540 113.2740 344° North 270 311 5,700 1,636 Climbing FlightAware ADS-B
Sat 08:01:32 PM 23.5940 113.2630 346° North 272 313 6,400 1,300 Climbing FlightAware ADS-B
Sat 08:02:02 PM 23.6300 113.2530 346° North 269 310 7,000 1,855 Climbing FlightAware ADS-B
Sat 08:02:27 PM 23.6620 113.2460 349° North 270 311 8,100 2,850 Climbing FlightAware ADS-B
Sat 08:02:42 PM 23.6800 113.2460 360° North 276 318 8,900 2,618 Climbing FlightAware ADS-B
Sat 08:03:22 PM 23.7310 113.2620 16° North 301 346 10,500 2,329 Climbing FlightAware ADS-B
Sat 08:04:07 PM 23.7960 113.2840 17° North 330 380 12,200 2,471 Climbing FlightAware ADS-B
Sat 08:04:47 PM 23.8570 113.3040 17° North 347 399 14,000 2,850 Climbing FlightAware ADS-B
Sat 08:05:27 PM 23.9210 113.3250 17° North 357 411 16,000 2,259 Climbing FlightAware ADS-B
Sat 08:06:12 PM 23.9920 113.3490 17° North 363 418 17,200 2,118 Climbing FlightAware ADS-B
Sat 08:06:52 PM 24.0570 113.3700 16° North 374 430 19,000 2,560 Climbing FlightAware ADS-B
Sat 08:07:27 PM 24.1160 113.3850 13° North 374 430 20,400 2,400 Climbing FlightAware ADS-B
Sat 08:07:47 PM 24.1490 113.3800 352° North 366 421 21,200 2,229 Climbing FlightAware ADS-B
Sat 08:08:02 PM 24.1740 113.3650 331° Northwest 365 420 21,700 800 Climbing FlightAware ADS-B
Sat 08:08:47 PM 24.2340 113.3170 324° Northwest 375 432 22,000 1,271 Climbing FlightAware ADS-B
Sat 08:09:27 PM 24.2900 113.2710 323° Northwest 380 437 23,500 2,259 Climbing FlightAware ADS-B
Sat 08:10:12 PM 24.3560 113.2170 323° Northwest 386 444 25,200 3,035 Climbing FlightAware ADS-B
Sat 08:10:52 PM 24.4090 113.1680 320° Northwest 350 403 27,800 3,600 Climbing FlightAware ADS-B
Sat 08:11:32 PM 24.4410 113.1110 302° West 322 371 30,000 1,694 Climbing FlightAware ADS-B
Sat 08:12:17 PM 24.4760 113.0480 301° West 351 404 30,200 1,412 Climbing FlightAware ADS-B
Sat 08:12:57 PM 24.5060 112.9900 300° West 333 383 32,000 2,047 Climbing FlightAware ADS-B
Sat 08:13:42 PM 24.5280 112.9130 287° West 334 384 33,100 1,482 Climbing FlightAware ADS-B
Sat 08:14:22 PM 24.5460 112.8460 286° West 333 383 34,100 750 Climbing FlightAware ADS-B
Sat 08:15:02 PM 24.5630 112.7790 286° West 349 402 34,100  Level FlightAware ADS-B
Sat 08:15:47 PM 24.5830 112.7020 286° West 365 420 34,100  Level FlightAware ADS-B
Sat 08:16:27 PM 24.6020 112.6300 286° West 367 422 34,100  Level FlightAware ADS-B
Sat 08:17:12 PM 24.6220 112.5510 286° West 368 423 34,100  Level FlightAware ADS-B
Sat 08:17:47 PM 24.6390 112.4860 286° West 368 423 34,100  Level FlightAware ADS-B
Sat 08:18:47 PM 24.6660 112.3800 286° West 368 423 34,100  Level FlightAware ADS-B
Sat 08:19:27 PM 24.6850 112.3060 286° West 367 422 34,100  Level FlightAware ADS-B
Sat 08:20:12 PM 24.7050 112.2300 286° West 367 422 34,100  Level FlightAware ADS-B
Sat 08:20:52 PM 24.7220 112.1590 285° West 367 422 34,100  Level FlightAware ADS-B
Sat 08:21:27 PM 24.7400 112.0900 286° West 366 421 34,100  Level FlightAware ADS-B
Sat 08:22:12 PM 24.7580 112.0180 285° West 366 421 34,100  Level FlightAware ADS-B
Sat 08:23:02 PM 24.7840 111.9180 286° West 364 419 34,100  Level FlightAware ADS-B
Sat 08:23:42 PM 24.8010 111.8500 285° West 365 420 34,100  Level FlightAware ADS-B
Sat 08:24:37 PM 24.8260 111.7540 286° West 362 417 34,100  Level FlightAware ADS-B
Sat 08:25:22 PM 24.8470 111.6690 285° West 361 415 34,100  Level FlightAware ADS-B
Sat 08:26:17 PM 24.8710 111.5730 285° West 362 417 34,100  Level FlightAware ADS-B
Sat 08:26:57 PM 24.8880 111.5060 286° West 362 417 34,100  Level FlightAware ADS-B
Sat 08:27:42 PM 24.9080 111.4230 285° West 362 417 34,100  Level FlightAware ADS-B
Sat 08:28:22 PM 24.9270 111.3500 286° West 363 418 34,100  Level FlightAware ADS-B
Sat 08:29:07 PM 24.9470 111.2680 285° West 363 418 34,100  Level FlightAware ADS-B
Sat 08:30:02 PM 24.9690 111.1800 285° West 363 418 34,100  Level FlightAware ADS-B
Sat 08:30:42 PM 24.9870 111.1050 285° West 363 418 34,100  Level FlightAware ADS-B
Sat 08:31:27 PM 25.0050 111.0310 285° West 363 418 34,100  Level FlightAware ADS-B
Sat 08:32:07 PM 25.0200 110.9700 285° West 363 418 34,100  Level FlightAware ADS-B
Sat 08:32:47 PM 25.0350 110.9090 285° West 363 418 34,100  Level FlightAware ADS-B
Sat 08:33:27 PM 25.0500 110.8480 285° West 363 418 34,100  Level FlightAware ADS-B
Sat 08:34:07 PM 25.0650 110.7870 285° West 363 418 34,100  Level FlightAware ADS-B
Sat 08:34:47 PM 25.0790 110.7260 284° West 363 418 34,100  Level FlightAware ADS-B
Sat 08:35:37 PM 25.0980 110.6500 285° West 363 418 34,100  Level FlightAware ADS-B
Sat 08:36:17 PM 25.1130 110.5890 285° West 363 418 34,100  Level FlightAware ADS-B
Sat 08:36:57 PM 25.1270 110.5280 284° West 363 418 34,100  Level FlightAware ADS-B
Sat 08:37:37 PM 25.1420 110.4670 285° West 363 418 34,100  Level FlightAware ADS-B
Sat 08:38:17 PM 25.1570 110.4060 285° West 363 418 34,100  Level FlightAware ADS-B
Sat 08:39:07 PM 25.1750 110.3300 285° West 363 418 34,100  Level FlightAware ADS-B
Sat 08:39:47 PM 25.1900 110.2690 285° West 363 418 34,100  Level FlightAware ADS-B
Sat 08:40:27 PM 25.2050 110.2080 285° West 363 418 34,100  Level FlightAware ADS-B
Sat 08:43:00 PM 25.4265 110.1760 353° North  Level Estimated
Sat 08:44:00 PM 25.5134 110.1634 353° North  Level Estimated
Sat 08:45:00 PM 25.6003 110.1508 353° North  Level Estimated
Sat 08:46:00 PM 25.6871 110.1382 353° North  Level Estimated
Sat 08:47:00 PM 25.7740 110.1256 353° North  Level Estimated
Sat 08:48:00 PM 25.8609 110.1130 353° North  Level Estimated
Sat 08:49:00 PM 25.9477 110.1003 353° North  Level Estimated
Sat 08:50:00 PM 26.0346 110.0876 353° North  Level Estimated
Sat 08:51:00 PM 26.1215 110.0749 353° North  Level Estimated
Sat 08:52:00 PM 26.2083 110.0622 353° North  Level Estimated
Sat 08:53:00 PM 26.2952 110.0494 353° North  Level Estimated
Sat 08:54:00 PM 26.3820 110.0367 353° North  Level Estimated
Sat 08:55:00 PM 26.4689 110.0239 352° North  Level Estimated
Sat 08:56:00 PM 26.5557 110.0111 352° North  Level Estimated
Sat 08:57:00 PM 26.6426 109.9983 352° North  Level Estimated
Sat 08:58:00 PM 26.7295 109.9854 352° North  Level Estimated
Sat 08:59:00 PM 26.8163 109.9726 352° North  Level Estimated
Sat 09:00:00 PM 26.9032 109.9597 352° North  Level Estimated
Sat 09:01:00 PM 26.9900 109.9468 352° North  Level Estimated
Sat 09:02:00 PM 27.0769 109.9339 352° North  Level Estimated
Sat 09:03:00 PM 27.1637 109.9209 352° North  Level Estimated
Sat 09:04:00 PM 27.2506 109.9080 352° North  Level Estimated
Sat 09:05:00 PM 27.3374 109.8950 352° North  Level Estimated
Sat 09:06:00 PM 27.4243 109.8820 352° North  Level Estimated
Sat 09:07:00 PM 27.5111 109.8690 352° North  Level Estimated
Sat 09:08:00 PM 27.5979 109.8559 352° North  Level Estimated
Sat 09:09:00 PM 27.6848 109.8429 352° North  Level Estimated
Sat 09:10:00 PM 27.7716 109.8298 352° North  Level Estimated
Sat 09:11:00 PM 27.8585 109.8167 352° North  Level Estimated
Sat 09:12:00 PM 27.9453 109.8036 352° North  Level Estimated
Sat 09:13:00 PM 28.0321 109.7904 352° North  Level Estimated
Sat 09:14:00 PM 28.1190 109.7772 352° North  Level Estimated
Sat 09:15:00 PM 28.2058 109.7641 352° North  Level Estimated
Sat 09:16:00 PM 28.2926 109.7508 352° North  Level Estimated
Sat 09:17:00 PM 28.3795 109.7376 352° North  Level Estimated
Sat 09:18:00 PM 28.4663 109.7244 352° North  Level Estimated
Sat 09:19:00 PM 28.5531 109.7111 352° North  Level Estimated
Sat 09:20:00 PM 28.6400 109.6978 352° North  Level Estimated
Sat 09:21:00 PM 28.7268 109.6845 352° North  Level Estimated
Sat 09:22:00 PM 28.8136 109.6711 352° North  Level Estimated
Sat 09:23:00 PM 28.9004 109.6578 352° North  Level Estimated
Sat 09:24:00 PM 28.9873 109.6444 352° North  Level Estimated
Sat 09:25:00 PM 29.0741 109.6310 352° North  Level Estimated
Sat 09:26:00 PM 29.1609 109.6175 352° North  Level Estimated
Sat 09:27:00 PM 29.2477 109.6041 352° North  Level Estimated
Sat 09:28:00 PM 29.3345 109.5906 352° North  Level Estimated
Sat 09:29:00 PM 29.4214 109.5771 352° North  Level Estimated
Sat 09:30:00 PM 29.5082 109.5636 352° North  Level Estimated
Sat 09:31:00 PM 29.5950 109.5500 352° North  Level Estimated
Sat 09:32:00 PM 29.6818 109.5365 352° North  Level Estimated
Sat 09:33:00 PM 29.7686 109.5229 352° North  Level Estimated
Sat 09:34:00 PM 29.8554 109.5092 352° North  Level Estimated
Sat 09:35:00 PM 29.9422 109.4956 352° North  Level Estimated
Sat 09:36:00 PM 30.0290 109.4819 352° North  Level Estimated
Sat 09:37:00 PM 30.1158 109.4683 352° North  Level Estimated
Sat 09:38:00 PM 30.2026 109.4546 352° North  Level Estimated
Sat 09:39:00 PM 30.2894 109.4408 352° North  Level Estimated
Sat 09:40:00 PM 30.3762 109.4270 352° North  Level Estimated
Sat 09:41:00 PM 30.4630 109.4133 352° North  Level Estimated
Sat 09:42:00 PM 30.5498 109.3995 352° North  Level Estimated
Sat 09:43:00 PM 30.6366 109.3856 352° North  Level Estimated
Sat 09:44:00 PM 30.7234 109.3718 352° North  Level Estimated
Sat 09:45:00 PM 30.8102 109.3579 352° North  Level Estimated
Sat 09:46:00 PM 30.8970 109.3440 352° North  Level Estimated
Sat 09:47:00 PM 30.9838 109.3300 352° North  Level Estimated
Sat 09:48:00 PM 31.0706 109.3161 352° North  Level Estimated
Sat 09:49:00 PM 31.1574 109.3021 352° North  Level Estimated
Sat 09:50:00 PM 31.2442 109.2881 352° North  Level Estimated
Sat 09:51:00 PM 31.3309 109.2740 352° North  Level Estimated
Sat 09:52:00 PM 31.4177 109.2600 352° North  Level Estimated
Sat 09:53:00 PM 31.5045 109.2459 352° North  Level Estimated
Sat 09:54:00 PM 31.5913 109.2318 352° North  Level Estimated
Sat 09:55:00 PM 31.6781 109.2177 352° North  Level Estimated
Sat 09:56:00 PM 31.7648 109.2035 352° North  Level Estimated
Sat 09:57:00 PM 31.8516 109.1893 352° North  Level Estimated
Sat 09:58:00 PM 31.9384 109.1751 352° North  Level Estimated
Sat 09:59:00 PM 32.0252 109.1608 352° North  Level Estimated
Sat 10:00:00 PM 32.1119 109.1466 352° North  Level Estimated
Sat 10:01:00 PM 32.1987 109.1322 352° North  Level Estimated
Sat 10:02:00 PM 32.2855 109.1179 352° North  Level Estimated
Sat 10:03:00 PM 32.3722 109.1036 352° North  Level Estimated
Sat 10:04:00 PM 32.4590 109.0892 352° North  Level Estimated
Sat 10:05:00 PM 32.5457 109.0748 352° North  Level Estimated
Sat 10:06:00 PM 32.6325 109.0603 352° North  Level Estimated
Sat 10:07:00 PM 32.7193 109.0459 352° North  Level Estimated
Sat 10:08:00 PM 32.8060 109.0314 352° North  Level Estimated
Sat 10:09:00 PM 32.8928 109.0168 352° North  Level Estimated
Sat 10:10:00 PM 32.9795 109.0023 352° North  Level Estimated
Sat 10:11:00 PM 33.0663 108.9877 352° North  Level Estimated
Sat 10:12:00 PM 33.1530 108.9731 352° North  Level Estimated
Sat 10:13:00 PM 33.2398 108.9585 352° North  Level Estimated
Sat 10:14:00 PM 33.3265 108.9438 352° North  Level Estimated
Sat 10:15:00 PM 33.4133 108.9291 352° North  Level Estimated
Sat 10:16:00 PM 33.5000 108.9144 352° North  Level Estimated
Sat 10:17:00 PM 33.5868 108.8996 352° North  Level Estimated
Sat 10:18:00 PM 33.6735 108.8848 352° North  Level Estimated
Sat 10:19:00 PM 33.7603 108.8700 352° North  Level Estimated
Sat 10:20:00 PM 33.8470 108.8551 352° North  Level Estimated
Sat 10:21:00 PM 33.9337 108.8403 352° North  Level Estimated
Sat 10:22:00 PM 34.0205 108.8254 352° North  Level Estimated
Sat 10:23:00 PM 34.1072 108.8104 352° North  Level Estimated
Sat 10:24:00 PM 34.1939 108.7955 352° North  Level Estimated

Login

Don't have an account? Register now (free) for customized features, flight alerts, and more!